MMPB/PBC METAR and TAF weather

Enter ICAO airport designator
Station Type Date Time Source
MMPB METAR 2019/10/14 01:49 UTC NOAA

MMPB 140149Z 16004KT 11SM SCT020 15/12 A3029 RMK 8/500


Station Type Date Time Source
MMPB Decoded METAR 2019/10/14 01:49 UTC NOAA

Puebla, Pue., Mexico (MMPB) 19-03N 098-10W
Oct 13, 2019 - 09:49 PM EDT / 2019.10.14 0149 UTC
Wind: from the SSE (160 degrees) at 5 MPH (4 KT):0
Visibility: 11 mile(s):0
Sky conditions: partly cloudy
Temperature: 59 F (15 C)
Dew Point: 53 F (12 C)
Relative Humidity: 82%
Pressure (altimeter): 30.29 in. Hg (1025 hPa)
ob: MMPB 140149Z 16004KT 11SM SCT020 15/12 A3029 RMK 8/500
cycle: 2

Station Type Date Time Source
MMPB TAF 2019/10/14 06:29 UTC NOAA

TAF MMPB 140422Z 1406/1506 20005KT P6SM SCT020
TEMPO 1412/1415 3SM BR SCT010
FM141800 16010KT P6SM SCT020
FM150300 16005KT P6SM SCT015

Example: see airport list